createdAt,value
2023-02-18T00:02:20.188Z,92499.50
2023-02-18T00:05:27.321Z,92502.97
2023-02-18T00:08:30.704Z,92497.22
2023-02-18T00:11:37.045Z,92500.75
2023-02-18T00:14:40.581Z,92495.34
2023-02-18T00:17:44.111Z,92504.72
2023-02-18T00:20:47.500Z,92497.63
2023-02-18T00:23:51.124Z,92489.38
2023-02-18T00:26:54.482Z,92486.13
2023-02-18T00:29:59.400Z,92485.25
2023-02-18T00:33:06.169Z,92489.66
2023-02-18T00:36:14.800Z,92491.00
2023-02-18T00:39:18.241Z,92482.56
2023-02-18T00:42:22.283Z,92483.59
2023-02-18T00:45:25.563Z,92477.94
2023-02-18T00:48:38.244Z,92483.06
2023-02-18T00:51:41.562Z,92475.97
2023-02-18T00:54:44.870Z,92473.50
2023-02-18T00:57:48.392Z,92476.06
2023-02-18T01:00:52.072Z,92467.63
2023-02-18T01:03:55.380Z,92468.22
2023-02-18T01:06:58.642Z,92463.38
2023-02-18T01:10:01.871Z,92455.69
2023-02-18T01:13:05.101Z,92454.25
2023-02-18T01:16:08.905Z,92459.59
2023-02-18T01:19:12.502Z,92450.91
2023-02-18T01:22:15.780Z,92436.97
2023-02-18T01:25:19.099Z,92440.69
2023-02-18T01:28:25.919Z,92439.94
2023-02-18T01:31:29.210Z,92431.34
2023-02-18T01:34:35.416Z,92436.19
2023-02-18T01:37:38.669Z,92425.81
2023-02-18T01:40:52.159Z,92427.44
2023-02-18T01:44:17.606Z,92416.50
2023-02-18T01:47:21.982Z,92423.59
2023-02-18T01:50:25.538Z,92426.06
2023-02-18T01:53:43.450Z,92422.34
2023-02-18T01:56:52.809Z,92427.03
2023-02-18T02:00:15.233Z,92425.28
2023-02-18T02:03:18.326Z,92422.63
2023-02-18T02:06:23.677Z,92417.19
2023-02-18T02:09:29.974Z,92430.38
2023-02-18T02:13:08.860Z,92421.56
2023-02-18T02:16:51.700Z,92416.91
2023-02-18T02:20:33.104Z,92424.53
2023-02-18T02:24:05.467Z,92419.75
2023-02-18T02:27:52.971Z,92419.03
2023-02-18T02:31:23.794Z,92404.97
2023-02-18T02:34:43.587Z,92403.97
2023-02-18T02:38:08.505Z,92397.00
2023-02-18T02:41:43.282Z,92395.31
2023-02-18T02:44:55.518Z,92396.53
2023-02-18T02:48:24.094Z,92389.91
2023-02-18T02:51:36.057Z,92389.25
2023-02-18T02:54:39.807Z,92379.03
2023-02-18T02:58:03.484Z,92384.22
2023-02-18T03:01:53.391Z,92370.69
2023-02-18T03:05:13.247Z,92370.47
2023-02-18T03:08:31.618Z,92374.38
2023-02-18T03:11:45.248Z,92369.66
2023-02-18T03:15:08.440Z,92370.13
2023-02-18T03:18:33.466Z,92360.69
2023-02-18T03:21:51.095Z,92351.72
2023-02-18T03:24:57.941Z,92343.84
2023-02-18T03:28:07.650Z,92344.72
2023-02-18T03:31:14.843Z,92334.56
2023-02-18T03:34:33.337Z,92343.28
2023-02-18T03:37:42.804Z,92333.94
2023-02-18T03:40:46.280Z,92338.47
2023-02-18T03:44:02.319Z,92327.75
2023-02-18T03:47:05.735Z,92331.75
2023-02-18T03:50:09.657Z,92327.41
2023-02-18T03:53:14.111Z,92325.50
2023-02-18T03:56:18.436Z,92314.91
2023-02-18T03:59:21.733Z,92314.81
2023-02-18T04:02:25.124Z,92316.44
2023-02-18T04:05:29.097Z,92311.22
2023-02-18T04:08:32.768Z,92309.06
2023-02-18T04:11:40.253Z,92301.91
2023-02-18T04:14:43.689Z,92305.44
2023-02-18T04:17:47.092Z,92295.13
2023-02-18T04:20:50.645Z,92288.66
2023-02-18T04:23:53.843Z,92290.16
2023-02-18T04:26:57.052Z,92275.59
2023-02-18T04:30:00.352Z,92272.03
2023-02-18T04:33:03.767Z,92265.38
2023-02-18T04:36:07.826Z,92264.09
2023-02-18T04:39:11.192Z,92267.56
2023-02-18T04:42:14.488Z,92252.03
2023-02-18T04:45:17.858Z,92250.28
2023-02-18T04:48:21.301Z,92248.06
2023-02-18T04:51:24.924Z,92228.75
2023-02-18T04:54:28.170Z,92232.22
2023-02-18T04:57:31.392Z,92228.44
2023-02-18T05:00:34.832Z,92227.81
2023-02-18T05:03:39.127Z,92229.97
2023-02-18T05:06:43.762Z,92222.34
2023-02-18T05:09:47.015Z,92231.44
2023-02-18T05:12:50.233Z,92214.66
2023-02-18T05:15:54.266Z,92203.22
2023-02-18T05:18:57.573Z,92207.28
2023-02-18T05:22:00.788Z,92206.91
2023-02-18T05:25:04.127Z,92191.78
2023-02-18T05:28:07.464Z,92194.25
2023-02-18T05:31:10.966Z,92183.63
2023-02-18T05:34:14.297Z,92185.25
2023-02-18T05:37:19.444Z,92173.47
2023-02-18T05:40:22.757Z,92180.78
2023-02-18T05:43:26.104Z,92171.53
2023-02-18T05:46:29.343Z,92176.25
2023-02-18T05:49:33.855Z,92169.47
2023-02-18T05:52:37.237Z,92167.28
2023-02-18T05:55:40.583Z,92166.44
2023-02-18T05:58:43.796Z,92174.84
2023-02-18T06:01:47.710Z,92168.41
2023-02-18T06:04:51.061Z,92171.44
2023-02-18T06:07:56.392Z,92165.06
2023-02-18T06:11:00.010Z,92158.28
2023-02-18T06:14:03.752Z,92161.25
2023-02-18T06:17:07.522Z,92158.88
2023-02-18T06:20:11.361Z,92150.06
2023-02-18T06:23:14.930Z,92151.91
2023-02-18T06:26:18.429Z,92149.59
2023-02-18T06:29:21.959Z,92140.31
2023-02-18T06:32:25.376Z,92143.25
2023-02-18T06:35:28.719Z,92131.63
2023-02-18T06:38:31.936Z,92123.38
2023-02-18T06:41:35.813Z,92129.28
2023-02-18T06:44:39.165Z,92127.84
2023-02-18T06:47:42.382Z,92134.81
2023-02-18T06:50:46.271Z,92138.88
2023-02-18T06:53:49.426Z,92134.94
2023-02-18T06:56:52.721Z,92131.53
2023-02-18T06:59:56.000Z,92131.84
2023-02-18T07:02:59.262Z,92122.22
2023-02-18T07:06:02.897Z,92121.66
2023-02-18T07:09:07.005Z,92108.84
2023-02-18T07:12:10.526Z,92110.06
2023-02-18T07:15:14.006Z,92109.22
2023-02-18T07:18:17.320Z,92119.06
2023-02-18T07:21:20.841Z,92119.88
2023-02-18T07:24:24.713Z,92128.97
2023-02-18T07:27:28.199Z,92124.19
2023-02-18T07:30:31.944Z,92125.00
2023-02-18T07:33:35.275Z,92127.97
2023-02-18T07:36:39.089Z,92134.66
2023-02-18T07:39:44.116Z,92136.22
2023-02-18T07:42:47.353Z,92139.47
2023-02-18T07:45:50.681Z,92139.78
2023-02-18T07:48:54.143Z,92144.75
2023-02-18T07:51:57.549Z,92155.50
2023-02-18T07:55:00.717Z,92162.88
2023-02-18T07:58:04.145Z,92164.66
2023-02-18T08:01:09.498Z,92165.00
2023-02-18T08:04:13.065Z,92161.31
2023-02-18T08:07:19.031Z,92163.56
2023-02-18T08:10:23.490Z,92170.19
2023-02-18T08:13:26.791Z,92171.44
2023-02-18T08:16:30.116Z,92182.22
2023-02-18T08:19:33.418Z,92182.22
2023-02-18T08:22:36.602Z,92185.03
2023-02-18T08:25:40.047Z,92182.84
2023-02-18T08:28:44.796Z,92184.34
2023-02-18T08:31:48.211Z,92187.09
2023-02-18T08:34:51.484Z,92191.19
2023-02-18T08:37:55.761Z,92178.16
2023-02-18T08:41:04.836Z,92189.84
2023-02-18T08:44:08.604Z,92185.97
2023-02-18T08:48:16.547Z,92198.94
2023-02-18T08:50:35.560Z,92189.78
2023-02-18T08:53:38.785Z,92192.25
2023-02-18T08:56:41.996Z,92188.47
2023-02-18T08:59:45.686Z,92196.34
2023-02-18T09:02:48.970Z,92193.72
2023-02-18T09:05:52.296Z,92206.44
2023-02-18T09:08:55.598Z,92205.72
2023-02-18T09:11:59.235Z,92202.50
2023-02-18T09:15:02.847Z,92198.88
2023-02-18T09:18:08.725Z,92208.06
2023-02-18T09:21:14.372Z,92215.06
2023-02-18T09:24:17.727Z,92212.69
2023-02-18T09:27:21.815Z,92217.03
2023-02-18T09:30:25.197Z,92211.06
2023-02-18T09:33:28.553Z,92215.31
2023-02-18T09:36:32.021Z,92223.22
2023-02-18T09:39:35.275Z,92228.50
2023-02-18T09:42:38.605Z,92230.19
2023-02-18T09:45:41.813Z,92224.78
2023-02-18T09:48:47.930Z,92232.31
2023-02-18T09:51:51.475Z,92231.75
2023-02-18T09:54:54.943Z,92236.09
2023-02-18T09:58:23.352Z,92242.13
2023-02-18T10:01:30.272Z,92250.13
2023-02-18T10:04:41.326Z,92248.00
2023-02-18T10:07:45.566Z,92250.25
2023-02-18T10:10:48.857Z,92252.59
2023-02-18T10:13:55.391Z,92258.81
2023-02-18T10:17:00.543Z,92255.38
2023-02-18T10:20:07.862Z,92260.94
2023-02-18T10:23:13.463Z,92256.31
2023-02-18T10:26:20.257Z,92262.06
2023-02-18T10:29:25.013Z,92264.97
2023-02-18T10:32:38.902Z,92267.94
2023-02-18T10:35:48.153Z,92263.09
2023-02-18T10:39:06.587Z,92268.53
2023-02-18T10:42:22.014Z,92275.28
2023-02-18T10:45:46.599Z,92273.66
2023-02-18T10:48:55.874Z,92278.59
2023-02-18T10:52:00.682Z,92284.16
2023-02-18T10:55:10.415Z,92283.97
2023-02-18T10:58:44.116Z,92277.53
2023-02-18T11:01:53.937Z,92285.84
2023-02-18T11:04:59.742Z,92290.34
2023-02-18T11:08:07.616Z,92294.00
2023-02-18T11:11:30.051Z,92288.91
2023-02-18T11:14:45.782Z,92293.88
2023-02-18T11:17:52.621Z,92298.88
2023-02-18T11:21:04.820Z,92300.09
2023-02-18T11:24:11.503Z,92296.78
2023-02-18T11:27:45.642Z,92300.00
2023-02-18T11:30:55.071Z,92295.69
2023-02-18T11:34:01.878Z,92302.31
2023-02-18T11:37:18.333Z,92309.81
2023-02-18T11:40:33.410Z,92313.03
2023-02-18T11:43:40.775Z,92310.47
2023-02-18T11:47:04.250Z,92301.31
2023-02-18T11:50:10.636Z,92313.38
2023-02-18T11:53:36.113Z,92306.84
2023-02-18T11:56:39.864Z,92312.59
2023-02-18T11:59:44.538Z,92311.16
2023-02-18T12:02:49.152Z,92323.19
2023-02-18T12:05:53.589Z,92312.94
2023-02-18T12:09:02.250Z,92325.84
2023-02-18T12:12:15.838Z,92327.75
2023-02-18T12:15:27.625Z,92324.06
2023-02-18T12:18:41.820Z,92325.53
2023-02-18T12:22:12.727Z,92323.13
2023-02-18T12:25:41.735Z,92323.19
2023-02-18T12:29:36.198Z,92337.81
2023-02-18T12:32:39.494Z,92348.53
2023-02-18T12:35:48.818Z,92341.66
2023-02-18T12:38:56.377Z,92344.09
2023-02-18T12:42:08.445Z,92348.88
2023-02-18T12:45:21.837Z,92353.84
2023-02-18T12:49:06.644Z,92351.28
2023-02-18T12:52:28.292Z,92363.44
2023-02-18T12:55:50.597Z,92360.44
2023-02-18T12:59:00.010Z,92357.00
2023-02-18T13:02:28.921Z,92350.91
2023-02-18T13:05:56.589Z,92361.53
2023-02-18T13:09:24.793Z,92359.97
2023-02-18T13:12:51.127Z,92357.72
2023-02-18T13:16:18.784Z,92358.81
2023-02-18T13:19:40.804Z,92368.75
2023-02-18T13:22:45.232Z,92365.19
2023-02-18T13:25:50.502Z,92375.34
2023-02-18T13:28:53.875Z,92363.94
2023-02-18T13:32:11.455Z,92367.34
2023-02-18T13:35:14.931Z,92372.06
2023-02-18T13:38:36.631Z,92367.31
2023-02-18T13:41:42.585Z,92375.59
2023-02-18T13:44:58.053Z,92378.47
2023-02-18T13:48:04.460Z,92371.13
2023-02-18T13:51:11.744Z,92379.75
2023-02-18T13:54:17.887Z,92385.78
2023-02-18T13:57:26.730Z,92384.72
2023-02-18T14:00:40.920Z,92392.78
2023-02-18T14:03:44.364Z,92396.38
2023-02-18T14:07:24.941Z,92395.38
2023-02-18T14:10:33.159Z,92391.63
2023-02-18T14:13:53.464Z,92400.09
2023-02-18T14:17:21.268Z,92403.84
2023-02-18T14:20:32.509Z,92404.94
2023-02-18T14:23:41.469Z,92406.97
2023-02-18T14:26:49.984Z,92412.59
2023-02-18T14:29:54.106Z,92423.00
2023-02-18T14:33:00.284Z,92422.06
2023-02-18T14:36:37.382Z,92416.91
2023-02-18T14:39:53.364Z,92432.91
2023-02-18T14:43:44.312Z,92437.72
2023-02-18T14:47:03.746Z,92441.56
2023-02-18T14:50:13.798Z,92449.47
2023-02-18T14:53:21.543Z,92447.84
2023-02-18T14:56:25.182Z,92457.22
2023-02-18T14:59:33.433Z,92452.50
2023-02-18T15:02:39.319Z,92452.66
2023-02-18T15:05:43.704Z,92456.38
2023-02-18T15:08:48.910Z,92461.19
2023-02-18T15:12:15.748Z,92458.94
2023-02-18T15:15:19.803Z,92468.38
2023-02-18T15:18:42.620Z,92469.31
2023-02-18T15:21:48.499Z,92469.56
2023-02-18T15:24:54.240Z,92474.34
2023-02-18T15:27:57.541Z,92475.41
2023-02-18T15:31:03.249Z,92489.13
2023-02-18T15:34:25.235Z,92482.06
2023-02-18T15:37:29.322Z,92484.97
2023-02-18T15:40:35.939Z,92489.78
2023-02-18T15:43:39.549Z,92499.75
2023-02-18T15:46:42.959Z,92497.75
2023-02-18T15:49:59.727Z,92504.69
2023-02-18T15:53:14.796Z,92506.69
2023-02-18T15:56:33.163Z,92517.63
2023-02-18T15:59:43.747Z,92526.56
2023-02-18T16:03:24.644Z,92522.00
2023-02-18T16:06:31.051Z,92522.28
2023-02-18T16:09:35.655Z,92518.97
2023-02-18T16:12:40.559Z,92517.91
2023-02-18T16:15:49.232Z,92514.84
2023-02-18T16:18:52.718Z,92523.13
2023-02-18T16:21:55.887Z,92520.59
2023-02-18T16:25:09.156Z,92532.72
2023-02-18T16:28:23.103Z,92529.34
2023-02-18T16:31:26.398Z,92534.28
2023-02-18T16:34:30.142Z,92536.78
2023-02-18T16:37:39.419Z,92543.38
2023-02-18T16:40:42.665Z,92548.75
2023-02-18T16:43:45.973Z,92554.25
2023-02-18T16:46:49.199Z,92559.41
2023-02-18T16:49:52.662Z,92566.56
2023-02-18T16:52:56.007Z,92576.56
2023-02-18T16:55:59.315Z,92569.34
2023-02-18T16:59:03.340Z,92576.78
2023-02-18T17:02:16.231Z,92576.94
2023-02-18T17:05:27.150Z,92577.88
2023-02-18T17:08:30.492Z,92581.25
2023-02-18T17:11:36.395Z,92591.31
2023-02-18T17:14:39.813Z,92593.06
2023-02-18T17:17:43.064Z,92597.56
2023-02-18T17:20:49.082Z,92596.13
2023-02-18T17:23:53.327Z,92598.16
2023-02-18T17:26:56.219Z,92599.50
2023-02-18T17:29:59.438Z,92606.22
2023-02-18T17:33:03.369Z,92602.25
2023-02-18T17:36:07.228Z,92607.97
2023-02-18T17:39:15.064Z,92618.28
2023-02-18T17:42:18.371Z,92619.03
2023-02-18T17:45:21.579Z,92630.69
2023-02-18T17:48:26.140Z,92627.34
2023-02-18T17:51:32.736Z,92639.84
2023-02-18T17:54:35.947Z,92629.94
2023-02-18T17:57:39.290Z,92638.91
2023-02-18T18:00:52.642Z,92636.28
2023-02-18T18:03:55.970Z,92641.53
2023-02-18T18:06:59.400Z,92650.69
2023-02-18T18:10:02.616Z,92648.69
2023-02-18T18:13:08.456Z,92657.66
2023-02-18T18:16:14.198Z,92664.78
2023-02-18T18:19:17.552Z,92665.00
2023-02-18T18:22:21.033Z,92670.75
2023-02-18T18:25:30.750Z,92675.63
2023-02-18T18:28:35.147Z,92682.88
2023-02-18T18:31:39.360Z,92682.22
2023-02-18T18:34:44.849Z,92694.16
2023-02-18T18:37:48.492Z,92692.97
2023-02-18T18:40:52.661Z,92697.53
2023-02-18T18:43:55.884Z,92695.03
2023-02-18T18:46:59.096Z,92706.97
2023-02-18T18:50:02.298Z,92707.28
2023-02-18T18:53:06.891Z,92712.88
2023-02-18T18:56:13.446Z,92715.53
2023-02-18T18:59:17.133Z,92715.53
2023-02-18T19:02:20.776Z,92711.31
2023-02-18T19:05:36.882Z,92713.00
2023-02-18T19:08:40.289Z,92718.22
2023-02-18T19:11:43.528Z,92720.75
2023-02-18T19:14:46.846Z,92718.41
2023-02-18T19:17:53.692Z,92724.66
2023-02-18T19:20:57.296Z,92732.41
2023-02-18T19:24:00.658Z,92736.09
2023-02-18T19:27:04.184Z,92737.44
2023-02-18T19:30:08.654Z,92732.69
2023-02-18T19:33:13.889Z,92735.03
2023-02-18T19:36:17.410Z,92735.72
2023-02-18T19:39:20.628Z,92733.69
2023-02-18T19:42:23.820Z,92731.84
2023-02-18T19:45:27.058Z,92748.50
2023-02-18T19:48:30.306Z,92748.72
2023-02-18T19:51:33.489Z,92750.94
2023-02-18T19:54:36.752Z,92753.97
2023-02-18T19:57:40.161Z,92752.44
2023-02-18T20:00:44.430Z,92756.47
2023-02-18T20:03:47.939Z,92755.16
2023-02-18T20:06:51.374Z,92753.69
2023-02-18T20:09:55.159Z,92758.41
2023-02-18T20:12:58.376Z,92753.53
2023-02-18T20:16:01.695Z,92759.41
2023-02-18T20:19:05.042Z,92769.03
2023-02-18T20:22:08.661Z,92777.94
2023-02-18T20:25:11.972Z,92776.25
2023-02-18T20:28:15.597Z,92786.81
2023-02-18T20:31:19.009Z,92775.50
2023-02-18T20:34:22.858Z,92784.47
2023-02-18T20:37:26.176Z,92785.94
2023-02-18T20:40:29.430Z,92790.38
2023-02-18T20:43:33.680Z,92793.69
2023-02-18T20:46:38.894Z,92792.88
2023-02-18T20:49:42.788Z,92797.66
2023-02-18T20:52:46.631Z,92816.75
2023-02-18T20:55:49.929Z,92811.78
2023-02-18T20:58:53.253Z,92808.72
2023-02-18T21:01:57.915Z,92814.69
2023-02-18T21:05:01.133Z,92818.69
2023-02-18T21:08:04.468Z,92820.34
2023-02-18T21:11:11.580Z,92822.72
2023-02-18T21:14:14.995Z,92823.38
2023-02-18T21:17:18.173Z,92827.06
2023-02-18T21:20:21.477Z,92831.91
2023-02-18T21:23:24.675Z,92838.13
2023-02-18T21:26:28.804Z,92839.16
2023-02-18T21:29:31.865Z,92842.91
2023-02-18T21:32:35.106Z,92836.88
2023-02-18T21:35:39.526Z,92847.41
2023-02-18T21:38:46.239Z,92855.34
2023-02-18T21:41:49.456Z,92856.69
2023-02-18T21:44:52.713Z,92863.19
2023-02-18T21:47:56.012Z,92865.69
2023-02-18T21:51:02.210Z,92868.03
2023-02-18T21:54:05.464Z,92871.75
2023-02-18T21:57:14.569Z,92872.72
2023-02-18T22:00:20.564Z,92885.78
2023-02-18T22:03:24.512Z,92876.31
2023-02-18T22:06:27.849Z,92882.06
2023-02-18T22:09:31.160Z,92886.72
2023-02-18T22:12:34.666Z,92890.59
2023-02-18T22:15:38.749Z,92893.78
2023-02-18T22:18:43.014Z,92889.25
2023-02-18T22:21:46.542Z,92898.63
2023-02-18T22:24:51.729Z,92900.94
2023-02-18T22:27:55.019Z,92897.28
2023-02-18T22:30:58.359Z,92900.78
2023-02-18T22:34:01.822Z,92898.47
2023-02-18T22:37:05.151Z,92908.91
2023-02-18T22:40:08.625Z,92910.44
2023-02-18T22:43:11.831Z,92913.69
2023-02-18T22:46:19.798Z,92919.88
2023-02-18T22:49:23.483Z,92923.94
2023-02-18T22:52:26.738Z,92929.16
2023-02-18T22:55:30.011Z,92930.50
2023-02-18T22:58:34.281Z,92930.88
2023-02-18T23:01:43.672Z,92936.41
2023-02-18T23:04:46.893Z,92942.22
2023-02-18T23:07:50.547Z,92944.66
2023-02-18T23:11:10.154Z,92947.94
2023-02-18T23:14:19.759Z,92955.28
2023-02-18T23:17:22.953Z,92957.41
2023-02-18T23:20:44.481Z,92963.47
2023-02-18T23:23:53.872Z,92964.16
2023-02-18T23:26:57.142Z,92969.66
2023-02-18T23:30:00.463Z,92971.31
2023-02-18T23:33:03.708Z,92972.47
2023-02-18T23:36:15.876Z,92985.72
2023-02-18T23:39:21.572Z,92995.66
2023-02-18T23:42:24.758Z,93003.75
2023-02-18T23:45:28.224Z,93001.81
2023-02-18T23:48:31.447Z,93016.59
2023-02-18T23:51:34.939Z,93011.78
2023-02-18T23:54:38.146Z,93023.31
2023-02-18T23:57:41.428Z,93025.84
